01:51 Rennrad Kaindorf - Deutsch Kaltenbrunn - Kaindorf
Ort Kaindorf Datum 28.09.2016 08:43:21
Kategorie Rennrad
Distanz 51,98 Kilometer Steigung 131,0 Meter Gefälle -140,0 Meter
Gesamt Zeit 01:51:18 Aktiv 01:51:18 Pause 00:00:00
Durchs. Tempo 28,0 km/h Tempo max. 37,8 km/h Tempo min. 17,2 km/h
Kalorien 0 Durchs. HF 101 BPM HF max. 123 BPM
Wetter 16 °C PartClouds Min/Max: 12,0 °C/18,8 °C; Druck: 1031,0 mbar; Rel. Feuchte: 69,1%; Taupunkt: 9,9 °C; Windgeschwindigkeit: 0,7 km/h; Niederschlag: 0,0mm
Ausrüstung Continental - Grand Prix 4000 S II 25-622
Poison - Rennrad
Bontrager - RXL Road
Shimano - HG CN-7901 Dura Ace
Notiz Kaindorf - Deutsch Kaltenbrunn - Kaindorf ... trocken, anfangs frisch, leicht windig, locker - sechster Fastentag ... garmin connect
Splits
Distanz (km) Gesamt Zeit Split Zeit Split Tempo Split Tempo Höhenprofil (m)
1,00 00:02:19 00:02:19 00:02:20 25,8 3,25
2,00 00:04:26 00:02:07 00:02:07 28,3 -5,71
3,00 00:06:24 00:01:57 00:01:58 30,6 -11,91
4,00 00:08:24 00:01:59 00:02:00 30,0 -3,00
5,00 00:10:21 00:01:57 00:01:57 30,7 -3,14
6,00 00:12:24 00:02:03 00:02:03 29,2 -9,20
7,00 00:14:21 00:01:56 00:01:57 30,8 -4,43
8,00 00:16:27 00:02:06 00:02:06 28,6 -2,25
9,00 00:18:25 00:01:57 00:01:58 30,6 -2,27
10,00 00:20:40 00:02:15 00:02:15 26,6 -3,25
11,00 00:22:45 00:02:05 00:02:05 28,8 0,73
12,00 00:24:54 00:02:08 00:02:08 28,0 -3,89
13,00 00:27:25 00:02:31 00:02:31 23,8 10,29
14,00 00:29:15 00:01:49 00:01:50 32,8 -17,88
15,00 00:31:18 00:02:03 00:02:03 29,2 0,39
16,00 00:33:18 00:01:59 00:02:00 30,0 -6,06
17,00 00:35:18 00:01:59 00:02:00 30,1 -2,72
18,00 00:37:26 00:02:07 00:02:08 28,1 2,07
19,00 00:39:33 00:02:07 00:02:08 28,2 -4,58
20,00 00:41:34 00:02:01 00:02:01 29,7 -0,49
21,00 00:43:47 00:02:12 00:02:13 27,1 -4,32
22,00 00:45:56 00:02:08 00:02:08 28,0 -0,32
23,00 00:48:04 00:02:08 00:02:09 28,0 -3,94
24,00 00:50:10 00:02:05 00:02:06 28,6 1,65
25,00 00:52:15 00:02:05 00:02:05 28,8 -2,71
26,00 00:54:24 00:02:08 00:02:09 28,0 -0,12
27,00 00:56:36 00:02:12 00:02:12 27,2 0,34
28,00 00:58:46 00:02:09 00:02:09 27,8 3,08
29,00 01:00:51 00:02:05 00:02:05 28,8 -2,65
30,00 01:03:00 00:02:08 00:02:09 27,9 4,80
31,00 01:05:07 00:02:07 00:02:07 28,3 -0,25
32,00 01:07:24 00:02:17 00:02:17 26,2 4,47
33,00 01:09:39 00:02:14 00:02:15 26,7 0,12
34,00 01:11:46 00:02:07 00:02:07 28,3 4,82
35,00 01:13:53 00:02:06 00:02:07 28,4 -2,21
36,00 01:15:56 00:02:03 00:02:04 29,1 2,61
37,00 01:18:10 00:02:13 00:02:13 27,0 7,13
38,00 01:20:15 00:02:05 00:02:05 28,7 -1,53
39,00 01:22:51 00:02:35 00:02:36 23,1 18,45
40,00 01:24:58 00:02:07 00:02:07 28,3 -10,55
41,00 01:27:15 00:02:16 00:02:17 26,4 3,51
42,00 01:29:30 00:02:15 00:02:15 26,6 0,80
43,00 01:31:45 00:02:15 00:02:15 26,6 2,62
44,00 01:33:54 00:02:09 00:02:09 27,9 1,50
45,00 01:36:09 00:02:14 00:02:14 26,8 2,47
46,00 01:38:17 00:02:07 00:02:08 28,1 4,23
47,00 01:40:32 00:02:15 00:02:15 26,6 9,48
48,00 01:42:40 00:02:08 00:02:09 28,0 3,37
49,00 01:44:47 00:02:06 00:02:06 28,5 3,13
50,00 01:47:01 00:02:14 00:02:14 26,8 12,03
51,00 01:49:15 00:02:13 00:02:14 26,9 6,13
52,00 01:51:10 00:01:54 00:01:55 31,3 -4,41
52,04 01:51:18 00:00:07 00:03:23 17,8 0,76